Arturo Michelena International Airport


Codes: SVVA/VLN
Name: Arturo Michelena International Airport
City: Valencia
Country: Venezuela
Elevation: 1411 ft.
Wikipedia:

Photos at Arturo Michelena International Airport


   Photos courtesy of SpottingLog. You can add your own sightings and photos by signing up for a free trial today.



No photos found.

Weather at Arturo Michelena International Airport


Time (UTC)DescriptionTempratureWindCloud coverageVisibilityPressureHumidity
18-Apr-2024 00:00Light Rain28°C4 mph, NE99%10000m1009hPa66%
18-Apr-2024 03:00Light Rain26°C2 mph, NW84%10000m1011hPa76%
18-Apr-2024 06:00Moderate Rain24°C2 mph, NW84%10000m1011hPa87%
18-Apr-2024 09:00Light Rain24°C2 mph, N99%10000m1011hPa88%
18-Apr-2024 12:00Light Rain26°C0 mph, SE100%9743m1013hPa74%
18-Apr-2024 15:00Moderate Rain30°C4 mph, SE100%4398m1013hPa57%
18-Apr-2024 18:00Moderate Rain31°C7 mph, S97%8159m1010hPa57%
18-Apr-2024 21:00Moderate Rain30°C4 mph, S84%10000m1009hPa61%
19-Apr-2024 00:00Light Rain26°C2 mph, W91%10000m1011hPa76%
19-Apr-2024 03:00Light Rain25°C4 mph, NW100%10000m1012hPa84%
19-Apr-2024 06:00Light Rain24°C2 mph, NW96%10000m1011hPa89%
19-Apr-2024 09:00Moderate Rain23°C2 mph, N91%10000m1011hPa96%
19-Apr-2024 12:00Moderate Rain25°C2 mph, NE83%10000m1013hPa84%
19-Apr-2024 15:00Moderate Rain30°C2 mph, SE89%10000m1013hPa62%
19-Apr-2024 18:00Moderate Rain31°C2 mph, SW93%10000m1010hPa60%
19-Apr-2024 21:00Moderate Rain29°C2 mph, NW100%5958m1010hPa71%
20-Apr-2024 00:00Moderate Rain24°C2 mph, NE100%1133m1012hPa91%
20-Apr-2024 03:00Moderate Rain24°C4 mph, N100%10000m1013hPa94%
20-Apr-2024 06:00Light Rain23°C4 mph, N100%10000m1012hPa94%
20-Apr-2024 09:00Light Rain23°C4 mph, N100%10000m1012hPa97%
20-Apr-2024 12:00Light Rain25°C4 mph, N100%10000m1014hPa87%
20-Apr-2024 15:00Moderate Rain28°C2 mph, N100%6106m1014hPa71%
20-Apr-2024 18:00Moderate Rain28°C2 mph, NW100%10000m1012hPa74%
20-Apr-2024 21:00Moderate Rain25°C2 mph, NW100%4436m1011hPa87%
21-Apr-2024 00:00Moderate Rain23°C0 mph, N100%1087m1013hPa94%
21-Apr-2024 03:00Light Rain23°C2 mph, N100%10000m1015hPa97%
21-Apr-2024 06:00Moderate Rain23°C2 mph, N100%10000m1013hPa95%
21-Apr-2024 09:00Moderate Rain23°C2 mph, NE100%10000m1012hPa93%
21-Apr-2024 12:00Light Rain25°C2 mph, SE100%10000m1014hPa84%
21-Apr-2024 15:00Light Rain29°C9 mph, SE96%10000m1014hPa64%
21-Apr-2024 18:00Light Rain28°C9 mph, S92%9555m1012hPa68%
21-Apr-2024 21:00Light Rain27°C7 mph, S99%10000m1011hPa71%
22-Apr-2024 00:00Light Rain24°C2 mph, SW100%10000m1013hPa85%
22-Apr-2024 03:00Overcast Clouds23°C2 mph, SW100%10000m1014hPa88%
22-Apr-2024 06:00Overcast Clouds23°C2 mph, NW96%10000m1012hPa90%
22-Apr-2024 09:00Overcast Clouds22°C0 mph, E94%10000m1012hPa91%
22-Apr-2024 12:00Overcast Clouds25°C2 mph, SE90%10000m1014hPa79%
22-Apr-2024 15:00Scattered Clouds30°C4 mph, SE27%10000m1014hPa56%
22-Apr-2024 18:00Light Rain31°C7 mph, S47%10000m1011hPa52%
22-Apr-2024 21:00Light Rain29°C4 mph, SW56%10000m1010hPa61%